Time;durP1;ratioP1;P1;durP2;ratioP2;P2;SDS_P1;SDS_P2;PMS_P1;PMS_P2;Temp;Humidity;BMP_temperature;BMP_pressure;BME280_temperature;BME280_humidity;BME280_pressure;Samples;Min_cycle;Max_cycle;Signal;HPM_P1;HPM_P2
2023/10/05 00:01:02;;;;;;;8.27;2.25;;;;;;;;;;4987130;28;25042;-71
2023/10/05 00:03:30;;;;;;;6.97;1.73;;;;;;;;;;4982177;28;25071;-71
2023/10/05 00:06:04;;;;;;;10.60;1.92;;;;;;;;;;4976584;28;25074;-71
2023/10/05 00:08:35;;;;;;;9.00;1.70;;;;;;;;;;4969650;28;25108;-71
2023/10/05 00:11:01;;;;;;;11.18;2.47;;;;;;;;;;4981171;28;25070;-68
2023/10/05 00:13:32;;;;;;;12.52;2.50;;;;;;;;;;4991815;28;25062;-72
2023/10/05 00:15:58;;;;;;;6.50;1.70;;;;;;;;;;4992746;28;25054;-71
2023/10/05 00:18:25;;;;;;;8.63;2.00;;;;;;;;;;4987855;28;25106;-72
2023/10/05 00:20:53;;;;;;;10.00;2.35;;;;;;;;;;4976534;28;25054;-74
2023/10/05 00:23:19;;;;;;;8.73;1.70;;;;;;;;;;5006291;28;25070;-76
2023/10/05 00:25:46;;;;;;;10.98;2.47;;;;;;;;;;4980693;28;25060;-72
2023/10/05 00:28:12;;;;;;;8.00;2.00;;;;;;;;;;4992999;28;25072;-72
2023/10/05 00:30:39;;;;;;;14.68;2.35;;;;;;;;;;4994536;28;25076;-71
2023/10/05 00:33:10;;;;;;;11.68;2.63;;;;;;;;;;4987704;28;25120;-70
2023/10/05 00:35:37;;;;;;;11.00;2.25;;;;;;;;;;4991870;28;25148;-72
2023/10/05 00:38:14;;;;;;;16.95;2.25;;;;;;;;;;4999258;28;25113;-72
2023/10/05 00:40:58;;;;;;;6.38;2.10;;;;;;;;;;4997619;28;25060;-72
2023/10/05 00:43:25;;;;;;;13.38;3.33;;;;;;;;;;4993677;28;25117;-72
2023/10/05 00:45:52;;;;;;;9.13;2.00;;;;;;;;;;4975676;28;25142;-70
2023/10/05 00:48:41;;;;;;;9.95;2.22;;;;;;;;;;4991902;28;25156;-73
2023/10/05 00:51:14;;;;;;;10.05;2.58;;;;;;;;;;4999895;28;25144;-70
2023/10/05 00:53:47;;;;;;;5.75;1.95;;;;;;;;;;4989039;28;25079;-70
2023/10/05 00:56:15;;;;;;;10.32;1.98;;;;;;;;;;4974953;28;25061;-69
2023/10/05 00:58:46;;;;;;;9.93;2.10;;;;;;;;;;4971519;28;25088;-70
2023/10/05 01:01:15;;;;;;;6.55;1.65;;;;;;;;;;4991421;28;25069;-71
2023/10/05 01:04:06;;;;;;;8.10;2.03;;;;;;;;;;4981969;28;25061;-70
2023/10/05 01:09:54;;;;;;;14.43;3.25;;;;;;;;;;4936194;28;25078;-69
2023/10/05 01:12:34;;;;;;;15.32;2.63;;;;;;;;;;4939307;28;25071;-73
2023/10/05 01:15:03;;;;;;;10.65;2.17;;;;;;;;;;4966784;28;25080;-69
2023/10/05 01:17:30;;;;;;;8.07;2.80;;;;;;;;;;4984993;28;25059;-74
2023/10/05 01:19:58;;;;;;;6.40;2.25;;;;;;;;;;4977296;28;25099;-69
2023/10/05 01:22:32;;;;;;;10.23;2.47;;;;;;;;;;4988105;28;25094;-72
2023/10/05 01:24:59;;;;;;;5.32;2.08;;;;;;;;;;4989890;28;25077;-73
2023/10/05 01:27:29;;;;;;;12.38;2.58;;;;;;;;;;4998488;28;25073;-69
2023/10/05 01:29:55;;;;;;;10.07;2.30;;;;;;;;;;4992256;28;25062;-71
2023/10/05 01:32:21;;;;;;;7.40;1.80;;;;;;;;;;4977486;28;25163;-69
2023/10/05 01:34:49;;;;;;;10.10;2.33;;;;;;;;;;4979833;28;25075;-71
2023/10/05 01:37:18;;;;;;;8.50;2.33;;;;;;;;;;4985301;28;25063;-72
2023/10/05 01:39:44;;;;;;;7.60;2.17;;;;;;;;;;4985907;28;25047;-69
2023/10/05 01:42:14;;;;;;;8.68;2.25;;;;;;;;;;4981230;28;25099;-70
2023/10/05 01:44:49;;;;;;;6.68;2.47;;;;;;;;;;4982701;28;25083;-71
2023/10/05 01:47:16;;;;;;;10.65;2.50;;;;;;;;;;4987776;28;25099;-73
2023/10/05 01:49:42;;;;;;;9.55;2.35;;;;;;;;;;4989364;28;25067;-70
2023/10/05 01:52:09;;;;;;;6.05;2.38;;;;;;;;;;4987317;28;25065;-69
2023/10/05 01:54:35;;;;;;;15.30;2.42;;;;;;;;;;4995865;28;25048;-69
2023/10/05 01:57:06;;;;;;;9.00;2.47;;;;;;;;;;4974143;28;25129;-67
2023/10/05 01:59:34;;;;;;;11.68;2.60;;;;;;;;;;4983739;28;25058;-69
2023/10/05 02:02:04;;;;;;;9.95;2.60;;;;;;;;;;4983538;28;25077;-71
2023/10/05 02:04:31;;;;;;;10.18;2.25;;;;;;;;;;4980579;28;25087;-69
2023/10/05 02:06:57;;;;;;;9.77;2.55;;;;;;;;;;4984785;28;25063;-75
2023/10/05 02:09:24;;;;;;;9.82;2.28;;;;;;;;;;4966531;28;25124;-71
2023/10/05 02:11:52;;;;;;;5.75;2.03;;;;;;;;;;4992700;28;25145;-72
2023/10/05 02:14:18;;;;;;;13.25;2.63;;;;;;;;;;4985854;28;25158;-71
2023/10/05 02:16:49;;;;;;;8.85;3.08;;;;;;;;;;4990550;28;25163;-71
2023/10/05 02:19:16;;;;;;;11.57;2.90;;;;;;;;;;4992624;28;25086;-70
2023/10/05 02:21:43;;;;;;;7.78;2.25;;;;;;;;;;4996350;28;25073;-70
2023/10/05 02:24:18;;;;;;;7.90;2.70;;;;;;;;;;4991961;28;25150;-71
2023/10/05 02:27:09;;;;;;;14.00;3.35;;;;;;;;;;4973831;28;25084;-72
2023/10/05 02:29:31;;;;;;;5.95;2.08;;;;;;;;;;4992546;28;25052;-71
2023/10/05 02:34:29;;;;;;;8.88;2.47;;;;;;;;;;4999579;28;25055;-71
2023/10/05 02:36:55;;;;;;;12.90;2.85;;;;;;;;;;4984047;28;25056;-71
2023/10/05 02:39:22;;;;;;;13.88;2.60;;;;;;;;;;4986021;28;25043;-69
2023/10/05 02:41:50;;;;;;;10.10;2.42;;;;;;;;;;4974115;28;25144;-71
2023/10/05 02:44:19;;;;;;;5.63;2.53;;;;;;;;;;4994830;28;25143;-71
2023/10/05 02:46:48;;;;;;;10.38;2.80;;;;;;;;;;4983776;28;25075;-70
2023/10/05 02:49:18;;;;;;;11.57;2.22;;;;;;;;;;4981892;28;25069;-70
2023/10/05 02:51:58;;;;;;;8.90;2.92;;;;;;;;;;4989183;28;25071;-72
2023/10/05 02:54:25;;;;;;;8.48;1.98;;;;;;;;;;4973370;28;25063;-71
2023/10/05 02:56:53;;;;;;;6.50;2.50;;;;;;;;;;4994455;28;25127;-73
2023/10/05 02:59:21;;;;;;;8.38;2.63;;;;;;;;;;4988761;28;25073;-74
2023/10/05 03:01:48;;;;;;;8.50;2.75;;;;;;;;;;4984055;28;25063;-71
2023/10/05 03:06:40;;;;;;;11.55;2.13;;;;;;;;;;4992679;28;25051;-70
2023/10/05 03:09:10;;;;;;;11.65;2.60;;;;;;;;;;4984394;28;25057;-71
2023/10/05 03:11:40;;;;;;;11.18;2.58;;;;;;;;;;4984426;28;25071;-69
2023/10/05 03:14:09;;;;;;;11.35;2.45;;;;;;;;;;4978283;28;25109;-73
2023/10/05 03:16:43;;;;;;;9.27;2.58;;;;;;;;;;4988772;28;25083;-71
2023/10/05 03:19:15;;;;;;;10.60;3.25;;;;;;;;;;4986564;28;25109;-71
2023/10/05 03:21:41;;;;;;;10.23;2.45;;;;;;;;;;4983599;28;25072;-69
2023/10/05 03:24:13;;;;;;;9.55;2.85;;;;;;;;;;4992781;28;25107;-73
2023/10/05 03:26:39;;;;;;;11.95;3.10;;;;;;;;;;4986073;28;25081;-74
2023/10/05 03:29:06;;;;;;;16.58;3.28;;;;;;;;;;4980306;28;25085;-72
2023/10/05 03:31:37;;;;;;;10.93;3.33;;;;;;;;;;4988319;28;25149;-73
2023/10/05 03:34:07;;;;;;;11.23;3.13;;;;;;;;;;4991949;28;25073;-72
2023/10/05 03:36:33;;;;;;;12.88;2.92;;;;;;;;;;4978911;28;25062;-70
2023/10/05 03:39:03;;;;;;;14.85;3.60;;;;;;;;;;4983744;28;25076;-69
2023/10/05 03:41:30;;;;;;;11.13;3.30;;;;;;;;;;4993791;28;25174;-71
2023/10/05 03:43:56;;;;;;;12.13;2.75;;;;;;;;;;4994153;28;25101;-71
2023/10/05 03:46:25;;;;;;;14.07;3.15;;;;;;;;;;4982201;28;25076;-68
2023/10/05 03:48:52;;;;;;;9.07;2.97;;;;;;;;;;4983245;28;25069;-70
2023/10/05 03:51:19;;;;;;;9.82;3.33;;;;;;;;;;4990490;28;25145;-73
2023/10/05 03:53:51;;;;;;;16.17;3.00;;;;;;;;;;4987663;28;25082;-70
2023/10/05 03:56:19;;;;;;;10.50;3.03;;;;;;;;;;4984040;28;25062;-71
2023/10/05 03:58:45;;;;;;;16.45;2.90;;;;;;;;;;4980179;28;25096;-70
2023/10/05 04:01:12;;;;;;;15.32;3.17;;;;;;;;;;4983210;28;25097;-74
2023/10/05 04:03:38;;;;;;;12.82;3.10;;;;;;;;;;4972448;28;25033;-72
2023/10/05 04:06:17;;;;;;;17.20;3.08;;;;;;;;;;4965604;28;25088;-71
2023/10/05 04:08:44;;;;;;;9.70;2.13;;;;;;;;;;4992735;28;25060;-71
2023/10/05 04:11:11;;;;;;;8.90;3.00;;;;;;;;;;4985447;28;25083;-69
2023/10/05 04:13:38;;;;;;;8.45;3.22;;;;;;;;;;4983264;28;25063;-70
2023/10/05 04:16:11;;;;;;;12.90;3.30;;;;;;;;;;4968109;28;25064;-71
2023/10/05 04:18:38;;;;;;;12.02;3.00;;;;;;;;;;4987198;28;25178;-70
2023/10/05 04:21:07;;;;;;;12.63;2.63;;;;;;;;;;4991773;28;25076;-70
2023/10/05 04:23:33;;;;;;;7.55;2.70;;;;;;;;;;4980973;28;25103;-69
2023/10/05 04:26:01;;;;;;;8.73;2.63;;;;;;;;;;4976403;28;25114;-70
2023/10/05 04:28:34;;;;;;;9.48;2.63;;;;;;;;;;4975419;28;25159;-71
2023/10/05 04:31:00;;;;;;;6.68;2.55;;;;;;;;;;4985032;28;25062;-71
2023/10/05 04:33:27;;;;;;;12.82;3.25;;;;;;;;;;4982573;28;25137;-72
2023/10/05 04:35:53;;;;;;;8.90;2.63;;;;;;;;;;4966590;28;25069;-73
2023/10/05 04:38:22;;;;;;;13.70;3.25;;;;;;;;;;4974205;28;25064;-74
2023/10/05 04:40:52;;;;;;;17.70;3.75;;;;;;;;;;4969871;28;25076;-73
2023/10/05 04:43:19;;;;;;;12.13;3.47;;;;;;;;;;4963492;28;25071;-73
2023/10/05 04:45:46;;;;;;;18.10;3.60;;;;;;;;;;4977016;28;25101;-72
2023/10/05 04:48:12;;;;;;;13.73;3.55;;;;;;;;;;4966719;28;25057;-70
2023/10/05 04:50:41;;;;;;;7.97;2.50;;;;;;;;;;4988321;28;25066;-68
2023/10/05 04:53:09;;;;;;;15.10;3.30;;;;;;;;;;4987207;28;25060;-69
2023/10/05 04:55:41;;;;;;;11.82;2.95;;;;;;;;;;4994577;28;25052;-70
2023/10/05 05:03:47;;;;;;;12.55;2.90;;;;;;;;;;4983777;28;25072;-69
2023/10/05 05:06:14;;;;;;;10.90;3.10;;;;;;;;;;4970894;28;25141;-70
2023/10/05 05:08:40;;;;;;;13.23;2.72;;;;;;;;;;4985202;28;25136;-71
2023/10/05 05:11:19;;;;;;;9.13;3.22;;;;;;;;;;4990104;28;25055;-70
2023/10/05 05:13:51;;;;;;;13.75;2.75;;;;;;;;;;4988222;28;25067;-70
2023/10/05 05:16:17;;;;;;;;;;;;;;;;;;4987476;28;25133;-70
2023/10/05 05:18:43;;;;;;;12.43;2.72;;;;;;;;;;4986344;28;25098;-70
2023/10/05 05:21:12;;;;;;;12.43;2.95;;;;;;;;;;4981563;28;25068;-70
2023/10/05 05:23:42;;;;;;;7.78;2.58;;;;;;;;;;4988387;28;25123;-71
2023/10/05 05:26:09;;;;;;;10.57;3.03;;;;;;;;;;4987451;28;25066;-73
2023/10/05 05:28:37;;;;;;;15.43;3.55;;;;;;;;;;4975547;28;25126;-71
2023/10/05 05:31:16;;;;;;;17.45;3.45;;;;;;;;;;4976798;28;25072;-72
2023/10/05 05:33:44;;;;;;;9.68;3.17;;;;;;;;;;4992084;28;25052;-76
2023/10/05 05:36:11;;;;;;;9.52;3.38;;;;;;;;;;4988792;28;25085;-73
2023/10/05 05:38:39;;;;;;;11.63;2.70;;;;;;;;;;4989596;28;25099;-72
2023/10/05 05:41:11;;;;;;;8.40;3.17;;;;;;;;;;4987123;28;25070;-74
2023/10/05 05:43:39;;;;;;;14.73;4.35;;;;;;;;;;4990435;28;25165;-71
2023/10/05 05:46:11;;;;;;;10.48;3.38;;;;;;;;;;4996694;28;25071;-74
2023/10/05 05:48:37;;;;;;;13.25;4.85;;;;;;;;;;4988371;28;25079;-71
2023/10/05 05:51:05;;;;;;;11.38;3.10;;;;;;;;;;4993252;28;25162;-71
2023/10/05 05:53:31;;;;;;;14.27;3.33;;;;;;;;;;4989701;28;25096;-71
2023/10/05 05:56:01;;;;;;;15.45;3.92;;;;;;;;;;4992278;28;25063;-73
2023/10/05 05:58:27;;;;;;;9.77;3.35;;;;;;;;;;4979305;28;25080;-72
2023/10/05 06:00:54;;;;;;;11.40;2.75;;;;;;;;;;4996967;28;25068;-71
2023/10/05 06:03:21;;;;;;;12.13;3.58;;;;;;;;;;4972494;28;25106;-73
2023/10/05 06:05:50;;;;;;;14.43;3.60;;;;;;;;;;4991455;28;25057;-70
2023/10/05 06:08:16;;;;;;;9.27;3.20;;;;;;;;;;4994003;28;25056;-73
2023/10/05 06:10:46;;;;;;;8.38;3.45;;;;;;;;;;4990686;28;25087;-71
2023/10/05 06:13:12;;;;;;;12.65;3.55;;;;;;;;;;4979098;28;25128;-72
2023/10/05 06:15:38;;;;;;;11.38;3.53;;;;;;;;;;4996127;28;25116;-69
2023/10/05 06:18:05;;;;;;;10.25;3.08;;;;;;;;;;4990679;28;25086;-72
2023/10/05 06:20:31;;;;;;;11.15;3.55;;;;;;;;;;4985311;28;25076;-71
2023/10/05 06:22:58;;;;;;;11.43;3.25;;;;;;;;;;4980233;28;25095;-70
2023/10/05 06:25:25;;;;;;;12.55;3.47;;;;;;;;;;5002134;28;25072;-71
2023/10/05 06:27:51;;;;;;;19.13;3.47;;;;;;;;;;5000939;28;25081;-72
2023/10/05 06:30:17;;;;;;;12.30;2.55;;;;;;;;;;4994358;28;25091;-71
2023/10/05 06:32:44;;;;;;;10.55;2.58;;;;;;;;;;4996602;28;25163;-73
2023/10/05 06:35:13;;;;;;;9.68;2.97;;;;;;;;;;4998324;28;25053;-72
2023/10/05 06:37:40;;;;;;;11.05;2.65;;;;;;;;;;4994296;28;25056;-71
2023/10/05 06:40:12;;;;;;;10.95;2.72;;;;;;;;;;4997760;28;25060;-70
2023/10/05 06:42:41;;;;;;;10.80;2.58;;;;;;;;;;4997504;28;25064;-71
2023/10/05 06:45:07;;;;;;;13.60;2.75;;;;;;;;;;4996288;28;25052;-71
2023/10/05 06:47:37;;;;;;;12.48;3.05;;;;;;;;;;4998327;28;25068;-73
2023/10/05 06:50:08;;;;;;;7.18;2.78;;;;;;;;;;4991848;28;25062;-73
2023/10/05 06:52:36;;;;;;;11.38;2.92;;;;;;;;;;4966495;28;25143;-71
2023/10/05 06:55:07;;;;;;;17.10;2.90;;;;;;;;;;4980808;28;25064;-72
2023/10/05 06:57:33;;;;;;;12.98;3.08;;;;;;;;;;4984660;28;25056;-70
2023/10/05 06:59:59;;;;;;;15.82;3.45;;;;;;;;;;4989122;28;25062;-71
2023/10/05 07:02:25;;;;;;;10.77;3.17;;;;;;;;;;4987123;28;25076;-71
2023/10/05 07:04:51;;;;;;;10.15;2.92;;;;;;;;;;4995166;28;25085;-71
2023/10/05 07:07:19;;;;;;;9.73;2.95;;;;;;;;;;4984615;28;25094;-72
2023/10/05 07:09:45;;;;;;;10.48;2.83;;;;;;;;;;4978076;28;25137;-72
2023/10/05 07:12:11;;;;;;;14.02;2.78;;;;;;;;;;4983614;28;25084;-72
2023/10/05 07:14:37;;;;;;;8.82;2.55;;;;;;;;;;4979194;28;25078;-71
2023/10/05 07:17:03;;;;;;;8.93;2.75;;;;;;;;;;4986213;28;25084;-72
2023/10/05 07:19:29;;;;;;;6.75;2.30;;;;;;;;;;4982298;28;25057;-72
2023/10/05 07:21:55;;;;;;;10.40;3.17;;;;;;;;;;4981582;28;25079;-74
2023/10/05 07:24:22;;;;;;;12.88;2.80;;;;;;;;;;4985431;28;25056;-73
2023/10/05 07:26:48;;;;;;;9.68;3.97;;;;;;;;;;4982821;28;25055;-74
2023/10/05 07:29:14;;;;;;;15.65;3.20;;;;;;;;;;4976238;28;25066;-73
2023/10/05 07:31:41;;;;;;;11.93;2.50;;;;;;;;;;4979949;28;25074;-73
2023/10/05 07:34:07;;;;;;;10.07;2.85;;;;;;;;;;4963527;28;25071;-72
2023/10/05 07:36:33;;;;;;;7.60;2.33;;;;;;;;;;4981510;28;25050;-71
2023/10/05 07:39:00;;;;;;;6.68;2.00;;;;;;;;;;4980644;28;25078;-71
2023/10/05 07:41:28;;;;;;;3.55;2.20;;;;;;;;;;4982689;28;25050;-74
2023/10/05 07:43:55;;;;;;;11.60;2.50;;;;;;;;;;4988955;28;25071;-71
2023/10/05 07:46:21;;;;;;;12.10;2.58;;;;;;;;;;5001912;28;25060;-73
2023/10/05 07:48:47;;;;;;;9.18;2.58;;;;;;;;;;5006861;28;25163;-71
2023/10/05 07:51:16;;;;;;;5.03;2.20;;;;;;;;;;4982015;28;25080;-73
2023/10/05 07:53:43;;;;;;;8.30;2.78;;;;;;;;;;4989128;28;25062;-70
2023/10/05 07:56:09;;;;;;;8.32;2.55;;;;;;;;;;4977029;28;25130;-72
2023/10/05 07:58:36;;;;;;;10.10;2.50;;;;;;;;;;4998273;28;25100;-72
2023/10/05 08:01:03;;;;;;;14.38;3.05;;;;;;;;;;4981797;28;25095;-71
2023/10/05 08:03:29;;;;;;;11.05;2.33;;;;;;;;;;5002450;28;25100;-71
2023/10/05 08:05:55;;;;;;;9.25;2.60;;;;;;;;;;4990338;28;25064;-72
2023/10/05 08:08:21;;;;;;;11.70;2.50;;;;;;;;;;4982201;28;25063;-75
2023/10/05 08:10:47;;;;;;;12.07;3.35;;;;;;;;;;4982655;28;25187;-71
2023/10/05 08:13:16;;;;;;;8.18;3.22;;;;;;;;;;4982584;28;25062;-74
2023/10/05 08:15:42;;;;;;;8.45;2.50;;;;;;;;;;4969296;28;25097;-73
2023/10/05 08:18:09;;;;;;;16.58;3.10;;;;;;;;;;4983685;28;25073;-73
2023/10/05 08:20:36;;;;;;;9.23;2.22;;;;;;;;;;4981090;28;25114;-71
2023/10/05 08:23:02;;;;;;;7.70;1.90;;;;;;;;;;4979207;28;25050;-74
2023/10/05 08:25:28;;;;;;;11.15;2.35;;;;;;;;;;4987221;28;25064;-75
2023/10/05 08:27:55;;;;;;;10.30;2.55;;;;;;;;;;4986495;28;25063;-72
2023/10/05 08:30:24;;;;;;;9.48;2.03;;;;;;;;;;4980403;28;25141;-74
2023/10/05 08:32:51;;;;;;;8.25;2.65;;;;;;;;;;4982301;28;25060;-72
2023/10/05 08:35:18;;;;;;;12.10;3.05;;;;;;;;;;4984778;28;25062;-72
2023/10/05 08:37:48;;;;;;;12.35;3.28;;;;;;;;;;4982141;28;25143;-73
2023/10/05 08:40:30;;;;;;;14.43;2.60;;;;;;;;;;4982588;28;25072;-74
2023/10/05 08:43:08;;;;;;;14.63;2.83;;;;;;;;;;4989821;28;25065;-73
2023/10/05 08:45:36;;;;;;;9.02;2.28;;;;;;;;;;4990746;28;25068;-72
2023/10/05 08:48:08;;;;;;;10.55;2.42;;;;;;;;;;4984712;28;25091;-76
2023/10/05 08:50:35;;;;;;;11.25;2.70;;;;;;;;;;4987417;28;25062;-72
2023/10/05 08:53:01;;;;;;;9.80;2.85;;;;;;;;;;4987983;28;25073;-72
2023/10/05 08:55:29;;;;;;;11.60;2.67;;;;;;;;;;4989534;28;25077;-72
2023/10/05 08:57:55;;;;;;;12.57;2.70;;;;;;;;;;4980065;28;25085;-73
2023/10/05 09:00:38;;;;;;;7.60;2.28;;;;;;;;;;4979188;28;25105;-75
2023/10/05 09:03:28;;;;;;;8.50;3.08;;;;;;;;;;4997383;28;25065;-70
2023/10/05 09:06:21;;;;;;;6.95;2.20;;;;;;;;;;4989849;28;25142;-72
2023/10/05 09:09:01;;;;;;;17.15;3.92;;;;;;;;;;4984679;28;25067;-72
2023/10/05 09:11:31;;;;;;;7.03;2.80;;;;;;;;;;4968561;28;25073;-72
2023/10/05 09:13:58;;;;;;;8.35;2.58;;;;;;;;;;4983995;28;25069;-72
2023/10/05 09:16:30;;;;;;;12.77;2.67;;;;;;;;;;4975612;28;25066;-70
2023/10/05 09:18:57;;;;;;;;;;;;;;;;;;4981394;28;25070;-74
2023/10/05 09:21:25;;;;;;;19.35;2.92;;;;;;;;;;4981912;28;25057;-72
2023/10/05 09:23:51;;;;;;;11.30;2.90;;;;;;;;;;4984909;28;25077;-73
2023/10/05 09:26:33;;;;;;;13.70;2.70;;;;;;;;;;4982605;28;25059;-74
2023/10/05 09:29:20;;;;;;;13.35;3.53;;;;;;;;;;4980002;28;25079;-70
2023/10/05 09:31:50;;;;;;;11.20;3.13;;;;;;;;;;4979116;28;25060;-70
2023/10/05 09:34:17;;;;;;;12.63;3.50;;;;;;;;;;4970779;28;25072;-71
2023/10/05 09:36:43;;;;;;;9.18;2.40;;;;;;;;;;4980652;28;25064;-71
2023/10/05 09:39:11;;;;;;;11.65;3.25;;;;;;;;;;4982056;28;25154;-71
2023/10/05 09:41:37;;;;;;;10.32;2.95;;;;;;;;;;4982215;28;25403;-72
2023/10/05 09:44:07;;;;;;;5.13;2.35;;;;;;;;;;4986612;28;25052;-73
2023/10/05 09:46:34;;;;;;;9.23;3.00;;;;;;;;;;4984280;28;25057;-71
2023/10/05 09:49:01;;;;;;;10.80;3.17;;;;;;;;;;4987916;28;25057;-71
2023/10/05 09:51:27;;;;;;;8.13;3.15;;;;;;;;;;4975451;28;25084;-73
2023/10/05 09:53:55;;;;;;;13.68;3.47;;;;;;;;;;4985793;28;25143;-72
2023/10/05 09:56:21;;;;;;;6.00;2.50;;;;;;;;;;4991276;28;25132;-73
2023/10/05 09:58:47;;;;;;;8.80;3.20;;;;;;;;;;4988742;28;25057;-71
2023/10/05 10:01:20;;;;;;;10.85;3.03;;;;;;;;;;4970696;28;25072;-71
2023/10/05 10:03:46;;;;;;;12.10;3.13;;;;;;;;;;4984852;28;25144;-72
2023/10/05 10:06:14;;;;;;;11.20;3.08;;;;;;;;;;4980020;28;25077;-71
2023/10/05 10:08:51;;;;;;;8.77;2.70;;;;;;;;;;4982431;28;25099;-71
2023/10/05 10:11:20;;;;;;;15.50;3.17;;;;;;;;;;4992729;28;25138;-72
2023/10/05 10:14:00;;;;;;;9.98;2.78;;;;;;;;;;4983821;28;25085;-71
2023/10/05 10:16:27;;;;;;;7.30;2.90;;;;;;;;;;4991337;28;25099;-72
2023/10/05 10:18:53;;;;;;;10.70;2.63;;;;;;;;;;4968583;28;25048;-72
2023/10/05 10:21:24;;;;;;;7.90;2.90;;;;;;;;;;4965557;28;25060;-73
2023/10/05 10:24:12;;;;;;;8.27;2.63;;;;;;;;;;4979931;28;25152;-72
2023/10/05 10:27:15;;;;;;;5.78;2.90;;;;;;;;;;4967681;28;25137;-71
2023/10/05 10:29:44;;;;;;;15.07;2.90;;;;;;;;;;4980031;28;25084;-71
2023/10/05 10:32:18;;;;;;;8.80;2.42;;;;;;;;;;4983371;28;25078;-72
2023/10/05 10:34:50;;;;;;;8.48;2.20;;;;;;;;;;4977043;28;25066;-74
2023/10/05 10:37:36;;;;;;;14.18;3.22;;;;;;;;;;4977996;28;25044;-71
2023/10/05 10:40:30;;;;;;;9.95;2.70;;;;;;;;;;4987107;28;25084;-72
2023/10/05 10:45:41;;;;;;;17.27;4.15;;;;;;;;;;4993162;28;25166;-71
2023/10/05 10:48:12;;;;;;;8.80;3.45;;;;;;;;;;4991351;28;25068;-72
2023/10/05 10:50:39;;;;;;;12.75;2.08;;;;;;;;;;4992484;28;25081;-72
2023/10/05 10:53:12;;;;;;;10.60;2.83;;;;;;;;;;4985366;28;25130;-71
2023/10/05 10:55:42;;;;;;;10.55;2.67;;;;;;;;;;5000824;28;25056;-72
2023/10/05 10:58:13;;;;;;;10.20;2.88;;;;;;;;;;4984089;28;25049;-72
2023/10/05 11:03:15;;;;;;;9.93;2.58;;;;;;;;;;4988414;28;25056;-73
2023/10/05 11:05:43;;;;;;;13.57;2.70;;;;;;;;;;4995481;28;25053;-72
2023/10/05 11:08:13;;;;;;;9.75;2.38;;;;;;;;;;4990164;28;25109;-73
2023/10/05 11:10:42;;;;;;;9.63;3.17;;;;;;;;;;4973073;28;25066;-72
2023/10/05 11:13:18;;;;;;;8.38;3.65;;;;;;;;;;5001176;28;25126;-71
2023/10/05 11:16:00;;;;;;;10.93;2.33;;;;;;;;;;4981829;28;25052;-71
2023/10/05 11:18:39;;;;;;;9.70;2.45;;;;;;;;;;4974664;28;25107;-71
2023/10/05 11:21:05;;;;;;;5.00;2.08;;;;;;;;;;4996296;28;25087;-72
2023/10/05 11:23:42;;;;;;;5.30;2.38;;;;;;;;;;4993242;28;25056;-72
2023/10/05 11:26:26;;;;;;;8.13;1.90;;;;;;;;;;4994920;28;25057;-75
2023/10/05 11:28:52;;;;;;;9.55;2.03;;;;;;;;;;4988579;28;25058;-70
2023/10/05 11:31:34;;;;;;;7.70;1.73;;;;;;;;;;4966287;28;25053;-72
2023/10/05 11:34:09;;;;;;;5.53;2.05;;;;;;;;;;4983321;28;25069;-70
2023/10/05 11:36:44;;;;;;;9.82;1.92;;;;;;;;;;4985877;28;25043;-70
2023/10/05 11:39:22;;;;;;;7.88;1.80;;;;;;;;;;4989217;28;25073;-73
2023/10/05 11:41:48;;;;;;;10.73;2.55;;;;;;;;;;4985221;28;25076;-70
2023/10/05 11:44:24;;;;;;;6.95;2.40;;;;;;;;;;5000263;28;25162;-71
2023/10/05 11:46:53;;;;;;;7.60;2.30;;;;;;;;;;4983211;28;25112;-73
2023/10/05 11:49:19;;;;;;;7.30;2.58;;;;;;;;;;4992943;28;25056;-73
2023/10/05 11:51:48;;;;;;;6.07;2.03;;;;;;;;;;4986127;28;25138;-72
2023/10/05 11:54:15;;;;;;;12.10;3.17;;;;;;;;;;4985784;28;25160;-73
2023/10/05 11:56:41;;;;;;;10.38;3.13;;;;;;;;;;4983130;28;25071;-74
2023/10/05 11:59:09;;;;;;;11.88;3.05;;;;;;;;;;4997698;28;25112;-70
2023/10/05 12:01:37;;;;;;;6.72;2.88;;;;;;;;;;4990760;28;25055;-71
2023/10/05 12:04:04;;;;;;;7.82;2.13;;;;;;;;;;4987603;28;25108;-71
2023/10/05 12:06:31;;;;;;;12.43;2.40;;;;;;;;;;4981872;28;25050;-70
2023/10/05 12:09:07;;;;;;;9.07;2.15;;;;;;;;;;4976040;28;25056;-70
2023/10/05 12:11:33;;;;;;;7.75;2.22;;;;;;;;;;4984808;28;25062;-71
2023/10/05 12:13:59;;;;;;;6.05;2.10;;;;;;;;;;4965997;28;25140;-72
2023/10/05 12:16:26;;;;;;;8.20;2.40;;;;;;;;;;4965522;28;25111;-71
2023/10/05 12:18:54;;;;;;;7.45;2.80;;;;;;;;;;4989541;28;25071;-71
2023/10/05 12:21:21;;;;;;;8.95;2.70;;;;;;;;;;4978632;28;25054;-72
2023/10/05 12:23:46;;;;;;;7.55;1.80;;;;;;;;;;4979630;28;25140;-71
2023/10/05 12:26:12;;;;;;;6.43;2.17;;;;;;;;;;4988129;28;25070;-73
2023/10/05 12:28:43;;;;;;;6.40;2.35;;;;;;;;;;4991390;28;25077;-72
2023/10/05 12:31:12;;;;;;;6.40;2.15;;;;;;;;;;4966786;28;25095;-72
2023/10/05 12:33:41;;;;;;;12.52;2.47;;;;;;;;;;4979547;28;25085;-71
2023/10/05 12:36:08;;;;;;;7.10;2.10;;;;;;;;;;4992196;28;25221;-72
2023/10/05 12:38:36;;;;;;;7.50;2.00;;;;;;;;;;5004116;28;25068;-71
2023/10/05 12:41:15;;;;;;;5.43;1.75;;;;;;;;;;4994929;28;25059;-72
2023/10/05 12:43:42;;;;;;;8.77;2.10;;;;;;;;;;4985012;28;25078;-71
2023/10/05 12:46:10;;;;;;;7.75;1.88;;;;;;;;;;4994177;28;25061;-72
2023/10/05 12:48:37;;;;;;;7.60;2.25;;;;;;;;;;4985735;28;25194;-72
2023/10/05 12:51:05;;;;;;;4.90;1.90;;;;;;;;;;4979313;28;25084;-72
2023/10/05 12:53:31;;;;;;;7.47;2.13;;;;;;;;;;4970402;28;25097;-73
2023/10/05 12:55:58;;;;;;;10.50;2.25;;;;;;;;;;4990085;28;25054;-74
2023/10/05 12:58:24;;;;;;;5.75;1.95;;;;;;;;;;4983250;28;25166;-77
2023/10/05 13:00:51;;;;;;;5.88;2.05;;;;;;;;;;4980225;28;25072;-78
2023/10/05 13:03:17;;;;;;;7.53;2.08;;;;;;;;;;4975631;28;25067;-72
2023/10/05 13:05:43;;;;;;;4.43;1.45;;;;;;;;;;4981643;28;25078;-71
2023/10/05 13:08:15;;;;;;;10.05;1.77;;;;;;;;;;4984656;28;25142;-69
2023/10/05 13:10:43;;;;;;;9.75;2.25;;;;;;;;;;4986519;28;25058;-76
2023/10/05 13:13:20;;;;;;;7.25;2.22;;;;;;;;;;4980671;28;25142;-69
2023/10/05 13:15:46;;;;;;;9.52;1.98;;;;;;;;;;4965334;28;25076;-77
2023/10/05 13:18:17;;;;;;;9.90;2.67;;;;;;;;;;4975695;28;25080;-69
2023/10/05 13:20:44;;;;;;;5.35;1.48;;;;;;;;;;4996348;28;25132;-73
2023/10/05 13:23:11;;;;;;;6.18;2.13;;;;;;;;;;4985002;28;25159;-71
2023/10/05 13:25:39;;;;;;;5.55;1.70;;;;;;;;;;4991131;28;25078;-72
2023/10/05 13:28:05;;;;;;;3.55;1.27;;;;;;;;;;4987850;28;25071;-71
2023/10/05 13:30:40;;;;;;;7.13;1.85;;;;;;;;;;4978617;28;25098;-71
2023/10/05 13:33:13;;;;;;;3.13;1.40;;;;;;;;;;4980026;28;25141;-71
2023/10/05 13:35:42;;;;;;;5.82;1.45;;;;;;;;;;4968787;28;25159;-71
2023/10/05 13:38:17;;;;;;;6.50;1.67;;;;;;;;;;4975640;28;25072;-73
2023/10/05 13:40:57;;;;;;;5.18;2.03;;;;;;;;;;4972942;28;25128;-71
2023/10/05 13:43:26;;;;;;;8.65;1.88;;;;;;;;;;4986538;28;25064;-71
2023/10/05 13:45:53;;;;;;;4.88;1.50;;;;;;;;;;4985291;28;25117;-71
2023/10/05 13:48:19;;;;;;;5.60;2.03;;;;;;;;;;4988069;28;25092;-71
2023/10/05 13:50:48;;;;;;;9.02;1.58;;;;;;;;;;4980010;28;25114;-71
2023/10/05 13:53:15;;;;;;;7.78;2.00;;;;;;;;;;4985185;28;25073;-74
2023/10/05 13:55:41;;;;;;;4.80;1.48;;;;;;;;;;4985037;28;25059;-70
2023/10/05 13:58:07;;;;;;;5.45;1.90;;;;;;;;;;4964127;28;25045;-70
2023/10/05 14:00:34;;;;;;;7.35;1.58;;;;;;;;;;4962064;28;25061;-75
2023/10/05 14:03:02;;;;;;;8.02;1.55;;;;;;;;;;4986276;28;25078;-71
2023/10/05 14:05:28;;;;;;;6.05;1.80;;;;;;;;;;4991058;28;25068;-70
2023/10/05 14:07:54;;;;;;;4.40;1.52;;;;;;;;;;4978511;28;25058;-72
2023/10/05 14:10:24;;;;;;;6.15;1.83;;;;;;;;;;4961475;28;25178;-69
2023/10/05 14:12:50;;;;;;;4.35;1.90;;;;;;;;;;4976730;28;25162;-73
2023/10/05 14:15:19;;;;;;;5.03;2.13;;;;;;;;;;4986068;28;25047;-70
2023/10/05 14:17:45;;;;;;;4.05;1.50;;;;;;;;;;4970180;28;25067;-71
2023/10/05 14:20:13;;;;;;;7.18;1.88;;;;;;;;;;4981021;28;25088;-75
2023/10/05 14:22:42;;;;;;;6.15;1.70;;;;;;;;;;4986906;28;25054;-73
2023/10/05 14:25:17;;;;;;;5.10;1.77;;;;;;;;;;4983409;28;25059;-72
2023/10/05 14:27:43;;;;;;;3.55;1.60;;;;;;;;;;4972452;28;25058;-71
2023/10/05 14:30:10;;;;;;;8.23;1.70;;;;;;;;;;4979989;28;25105;-71
2023/10/05 14:32:36;;;;;;;6.05;1.70;;;;;;;;;;4987136;28;25062;-69
2023/10/05 14:35:15;;;;;;;5.88;2.05;;;;;;;;;;4983789;28;25112;-72
2023/10/05 14:37:42;;;;;;;5.35;1.77;;;;;;;;;;4982895;28;25062;-76
2023/10/05 14:40:18;;;;;;;5.28;2.13;;;;;;;;;;4984441;28;25074;-69
2023/10/05 14:42:44;;;;;;;6.28;1.63;;;;;;;;;;4965464;28;25090;-72
2023/10/05 14:45:14;;;;;;;4.75;1.63;;;;;;;;;;4992090;28;25054;-71
2023/10/05 14:47:41;;;;;;;7.63;1.77;;;;;;;;;;4988875;28;25188;-70
2023/10/05 14:50:07;;;;;;;10.13;2.17;;;;;;;;;;4978736;28;25067;-74
2023/10/05 14:52:35;;;;;;;7.38;1.70;;;;;;;;;;4977570;28;25067;-74
2023/10/05 14:55:03;;;;;;;3.90;1.83;;;;;;;;;;4976904;28;25062;-73
2023/10/05 14:57:33;;;;;;;8.27;2.80;;;;;;;;;;4989052;28;25101;-70
2023/10/05 14:59:59;;;;;;;7.97;2.20;;;;;;;;;;4961651;28;25079;-69
2023/10/05 15:02:26;;;;;;;5.20;2.00;;;;;;;;;;4976099;28;25079;-73
2023/10/05 15:04:53;;;;;;;9.38;2.58;;;;;;;;;;4979142;28;25074;-72
2023/10/05 15:07:19;;;;;;;5.53;1.90;;;;;;;;;;4988823;28;25104;-71
2023/10/05 15:09:45;;;;;;;10.30;1.75;;;;;;;;;;4983546;28;25070;-70